sensor_id;sensor_type;location;lat;lon;timestamp;temperature;humidity
5938;DHT22;2994;51.220;4.412;2023-09-30T00:00:42;18.69;67.59
5938;DHT22;2994;51.220;4.412;2023-09-30T00:03:08;18.71;67.75
5938;DHT22;2994;51.220;4.412;2023-09-30T00:05:33;18.67;67.72
5938;DHT22;2994;51.220;4.412;2023-09-30T00:07:58;18.69;67.72
5938;DHT22;2994;51.220;4.412;2023-09-30T00:10:24;18.65;67.82
5938;DHT22;2994;51.220;4.412;2023-09-30T00:12:50;18.68;67.72
5938;DHT22;2994;51.220;4.412;2023-09-30T00:15:15;18.68;67.78
5938;DHT22;2994;51.220;4.412;2023-09-30T00:17:40;18.64;67.90
5938;DHT22;2994;51.220;4.412;2023-09-30T00:20:06;18.62;68.03
5938;DHT22;2994;51.220;4.412;2023-09-30T00:22:32;18.57;68.20
5938;DHT22;2994;51.220;4.412;2023-09-30T00:24:58;18.55;68.09
5938;DHT22;2994;51.220;4.412;2023-09-30T00:27:23;18.58;68.01
5938;DHT22;2994;51.220;4.412;2023-09-30T00:29:49;18.57;68.03
5938;DHT22;2994;51.220;4.412;2023-09-30T00:32:14;18.56;68.01
5938;DHT22;2994;51.220;4.412;2023-09-30T00:34:40;18.52;68.09
5938;DHT22;2994;51.220;4.412;2023-09-30T00:37:05;18.52;68.02
5938;DHT22;2994;51.220;4.412;2023-09-30T00:39:32;18.53;68.11
5938;DHT22;2994;51.220;4.412;2023-09-30T00:41:58;18.48;68.21
5938;DHT22;2994;51.220;4.412;2023-09-30T00:44:27;18.47;68.19
5938;DHT22;2994;51.220;4.412;2023-09-30T00:46:53;18.46;68.10
5938;DHT22;2994;51.220;4.412;2023-09-30T00:49:21;18.46;68.22
5938;DHT22;2994;51.220;4.412;2023-09-30T00:51:47;18.42;68.41
5938;DHT22;2994;51.220;4.412;2023-09-30T00:54:13;18.37;68.50
5938;DHT22;2994;51.220;4.412;2023-09-30T00:56:44;18.37;68.44
5938;DHT22;2994;51.220;4.412;2023-09-30T00:59:14;18.35;68.60
5938;DHT22;2994;51.220;4.412;2023-09-30T01:01:41;18.34;68.48
5938;DHT22;2994;51.220;4.412;2023-09-30T01:04:08;18.30;68.46
5938;DHT22;2994;51.220;4.412;2023-09-30T01:06:34;18.28;68.42
5938;DHT22;2994;51.220;4.412;2023-09-30T01:09:00;18.29;68.47
5938;DHT22;2994;51.220;4.412;2023-09-30T01:11:25;18.25;68.68
5938;DHT22;2994;51.220;4.412;2023-09-30T01:13:51;18.19;69.00
5938;DHT22;2994;51.220;4.412;2023-09-30T01:16:17;18.19;68.78
5938;DHT22;2994;51.220;4.412;2023-09-30T01:18:42;18.18;68.98
5938;DHT22;2994;51.220;4.412;2023-09-30T01:21:09;18.19;68.81
5938;DHT22;2994;51.220;4.412;2023-09-30T01:23:35;18.18;68.91
5938;DHT22;2994;51.220;4.412;2023-09-30T01:26:08;18.18;68.78
5938;DHT22;2994;51.220;4.412;2023-09-30T01:28:34;18.15;68.79
5938;DHT22;2994;51.220;4.412;2023-09-30T01:31:00;18.15;68.93
5938;DHT22;2994;51.220;4.412;2023-09-30T01:33:26;18.11;69.24
5938;DHT22;2994;51.220;4.412;2023-09-30T01:35:51;18.11;69.29
5938;DHT22;2994;51.220;4.412;2023-09-30T01:38:17;18.10;69.06
5938;DHT22;2994;51.220;4.412;2023-09-30T01:40:42;18.10;69.18
5938;DHT22;2994;51.220;4.412;2023-09-30T01:43:09;18.11;69.05
5938;DHT22;2994;51.220;4.412;2023-09-30T01:45:34;18.11;69.04
5938;DHT22;2994;51.220;4.412;2023-09-30T01:48:01;18.10;69.18
5938;DHT22;2994;51.220;4.412;2023-09-30T01:50:27;18.10;69.14
5938;DHT22;2994;51.220;4.412;2023-09-30T01:52:53;18.11;69.11
5938;DHT22;2994;51.220;4.412;2023-09-30T01:55:18;18.05;69.25
5938;DHT22;2994;51.220;4.412;2023-09-30T01:57:43;18.04;69.33
5938;DHT22;2994;51.220;4.412;2023-09-30T02:00:09;18.04;69.31
5938;DHT22;2994;51.220;4.412;2023-09-30T02:02:35;18.00;69.51
5938;DHT22;2994;51.220;4.412;2023-09-30T02:05:02;18.03;69.55
5938;DHT22;2994;51.220;4.412;2023-09-30T02:07:28;17.97;69.69
5938;DHT22;2994;51.220;4.412;2023-09-30T02:09:54;17.97;69.79
5938;DHT22;2994;51.220;4.412;2023-09-30T02:12:20;17.91;70.19
5938;DHT22;2994;51.220;4.412;2023-09-30T02:14:45;17.93;70.30
5938;DHT22;2994;51.220;4.412;2023-09-30T02:17:12;17.92;70.42
5938;DHT22;2994;51.220;4.412;2023-09-30T02:19:38;17.89;70.38
5938;DHT22;2994;51.220;4.412;2023-09-30T02:22:05;17.90;70.10
5938;DHT22;2994;51.220;4.412;2023-09-30T02:24:30;17.94;69.94
5938;DHT22;2994;51.220;4.412;2023-09-30T02:26:55;17.95;69.88
5938;DHT22;2994;51.220;4.412;2023-09-30T02:29:21;17.94;70.16
5938;DHT22;2994;51.220;4.412;2023-09-30T02:31:46;17.93;70.13
5938;DHT22;2994;51.220;4.412;2023-09-30T02:34:12;17.92;70.29
5938;DHT22;2994;51.220;4.412;2023-09-30T02:36:38;17.93;70.30
5938;DHT22;2994;51.220;4.412;2023-09-30T02:39:05;17.89;70.50
5938;DHT22;2994;51.220;4.412;2023-09-30T02:41:30;17.89;70.51
5938;DHT22;2994;51.220;4.412;2023-09-30T02:43:56;17.92;70.44
5938;DHT22;2994;51.220;4.412;2023-09-30T02:46:21;17.92;70.39
5938;DHT22;2994;51.220;4.412;2023-09-30T02:48:47;17.91;70.39
5938;DHT22;2994;51.220;4.412;2023-09-30T02:51:12;17.92;70.37
5938;DHT22;2994;51.220;4.412;2023-09-30T02:53:37;17.93;70.37
5938;DHT22;2994;51.220;4.412;2023-09-30T02:56:03;17.89;70.42
5938;DHT22;2994;51.220;4.412;2023-09-30T02:58:29;17.89;70.61
5938;DHT22;2994;51.220;4.412;2023-09-30T03:00:55;17.87;70.55
5938;DHT22;2994;51.220;4.412;2023-09-30T03:03:21;17.88;70.55
5938;DHT22;2994;51.220;4.412;2023-09-30T03:05:47;17.87;70.77
5938;DHT22;2994;51.220;4.412;2023-09-30T03:08:14;17.87;70.56
5938;DHT22;2994;51.220;4.412;2023-09-30T03:10:40;17.85;70.64
5938;DHT22;2994;51.220;4.412;2023-09-30T03:13:08;17.87;70.42
5938;DHT22;2994;51.220;4.412;2023-09-30T03:15:35;17.83;70.61
5938;DHT22;2994;51.220;4.412;2023-09-30T03:18:00;17.80;70.53
5938;DHT22;2994;51.220;4.412;2023-09-30T03:20:26;17.79;70.62
5938;DHT22;2994;51.220;4.412;2023-09-30T03:22:52;17.80;70.53
5938;DHT22;2994;51.220;4.412;2023-09-30T03:25:19;17.75;70.81
5938;DHT22;2994;51.220;4.412;2023-09-30T03:27:45;17.75;70.84
5938;DHT22;2994;51.220;4.412;2023-09-30T03:30:14;17.74;70.84
5938;DHT22;2994;51.220;4.412;2023-09-30T03:32:41;17.70;70.94
5938;DHT22;2994;51.220;4.412;2023-09-30T03:35:11;17.72;71.03
5938;DHT22;2994;51.220;4.412;2023-09-30T03:37:40;17.62;71.55
5938;DHT22;2994;51.220;4.412;2023-09-30T03:40:06;17.61;71.51
5938;DHT22;2994;51.220;4.412;2023-09-30T03:42:45;17.59;71.57
5938;DHT22;2994;51.220;4.412;2023-09-30T03:45:11;17.59;71.47
5938;DHT22;2994;51.220;4.412;2023-09-30T03:47:40;17.56;71.51
5938;DHT22;2994;51.220;4.412;2023-09-30T03:50:06;17.56;71.42
5938;DHT22;2994;51.220;4.412;2023-09-30T03:52:38;17.52;71.59
5938;DHT22;2994;51.220;4.412;2023-09-30T03:55:04;17.51;71.67
5938;DHT22;2994;51.220;4.412;2023-09-30T03:57:34;17.50;71.77
5938;DHT22;2994;51.220;4.412;2023-09-30T04:00:02;17.44;71.89
5938;DHT22;2994;51.220;4.412;2023-09-30T04:02:31;17.46;71.77
5938;DHT22;2994;51.220;4.412;2023-09-30T04:04:56;17.49;71.64
5938;DHT22;2994;51.220;4.412;2023-09-30T04:07:22;17.47;71.74
5938;DHT22;2994;51.220;4.412;2023-09-30T04:09:54;17.45;71.69
5938;DHT22;2994;51.220;4.412;2023-09-30T04:12:19;17.46;71.81
5938;DHT22;2994;51.220;4.412;2023-09-30T04:14:45;17.44;71.96
5938;DHT22;2994;51.220;4.412;2023-09-30T04:17:10;17.41;71.79
5938;DHT22;2994;51.220;4.412;2023-09-30T04:19:36;17.35;72.17
5938;DHT22;2994;51.220;4.412;2023-09-30T04:22:01;17.36;72.00
5938;DHT22;2994;51.220;4.412;2023-09-30T04:24:27;17.36;72.01
5938;DHT22;2994;51.220;4.412;2023-09-30T04:26:54;17.35;72.06
5938;DHT22;2994;51.220;4.412;2023-09-30T04:29:22;17.37;72.09
5938;DHT22;2994;51.220;4.412;2023-09-30T04:31:48;17.34;72.16
5938;DHT22;2994;51.220;4.412;2023-09-30T04:34:14;17.34;72.08
5938;DHT22;2994;51.220;4.412;2023-09-30T04:36:40;17.31;72.05
5938;DHT22;2994;51.220;4.412;2023-09-30T04:39:05;17.31;72.17
5938;DHT22;2994;51.220;4.412;2023-09-30T04:41:31;17.28;72.25
5938;DHT22;2994;51.220;4.412;2023-09-30T04:43:56;17.24;72.30
5938;DHT22;2994;51.220;4.412;2023-09-30T04:46:22;17.26;72.04
5938;DHT22;2994;51.220;4.412;2023-09-30T04:48:49;17.25;72.19
5938;DHT22;2994;51.220;4.412;2023-09-30T04:51:17;17.23;72.11
5938;DHT22;2994;51.220;4.412;2023-09-30T04:53:44;17.22;72.07
5938;DHT22;2994;51.220;4.412;2023-09-30T04:56:12;17.22;72.12
5938;DHT22;2994;51.220;4.412;2023-09-30T04:58:38;17.25;72.05
5938;DHT22;2994;51.220;4.412;2023-09-30T05:01:03;17.22;72.14
5938;DHT22;2994;51.220;4.412;2023-09-30T05:03:29;17.20;72.25
5938;DHT22;2994;51.220;4.412;2023-09-30T05:05:54;17.20;72.22
5938;DHT22;2994;51.220;4.412;2023-09-30T05:08:23;17.16;72.32
5938;DHT22;2994;51.220;4.412;2023-09-30T05:10:49;17.16;72.14
5938;DHT22;2994;51.220;4.412;2023-09-30T05:13:15;17.17;72.13
5938;DHT22;2994;51.220;4.412;2023-09-30T05:15:40;17.18;72.10
5938;DHT22;2994;51.220;4.412;2023-09-30T05:18:07;17.17;72.10
5938;DHT22;2994;51.220;4.412;2023-09-30T05:20:33;17.16;71.95
5938;DHT22;2994;51.220;4.412;2023-09-30T05:23:02;17.13;72.24
5938;DHT22;2994;51.220;4.412;2023-09-30T05:25:28;17.14;72.20
5938;DHT22;2994;51.220;4.412;2023-09-30T05:27:53;17.17;72.14
5938;DHT22;2994;51.220;4.412;2023-09-30T05:30:19;17.13;72.22
5938;DHT22;2994;51.220;4.412;2023-09-30T05:32:45;17.16;72.19
5938;DHT22;2994;51.220;4.412;2023-09-30T05:35:12;17.10;72.20
5938;DHT22;2994;51.220;4.412;2023-09-30T05:37:41;17.11;72.24
5938;DHT22;2994;51.220;4.412;2023-09-30T05:40:08;17.14;72.17
5938;DHT22;2994;51.220;4.412;2023-09-30T05:42:53;17.14;72.20
5938;DHT22;2994;51.220;4.412;2023-09-30T05:45:19;17.09;72.25
5938;DHT22;2994;51.220;4.412;2023-09-30T05:47:44;17.14;72.19
5938;DHT22;2994;51.220;4.412;2023-09-30T05:50:10;17.13;72.46
5938;DHT22;2994;51.220;4.412;2023-09-30T05:52:44;17.01;72.58
5938;DHT22;2994;51.220;4.412;2023-09-30T05:55:12;17.06;72.44
5938;DHT22;2994;51.220;4.412;2023-09-30T05:57:38;17.03;72.50
5938;DHT22;2994;51.220;4.412;2023-09-30T06:00:04;17.04;72.44
5938;DHT22;2994;51.220;4.412;2023-09-30T06:02:39;17.04;72.42
5938;DHT22;2994;51.220;4.412;2023-09-30T06:05:05;17.04;72.41
5938;DHT22;2994;51.220;4.412;2023-09-30T06:07:30;17.03;72.48
5938;DHT22;2994;51.220;4.412;2023-09-30T06:09:56;17.01;72.51
5938;DHT22;2994;51.220;4.412;2023-09-30T06:12:21;17.03;72.48
5938;DHT22;2994;51.220;4.412;2023-09-30T06:14:47;17.01;72.43
5938;DHT22;2994;51.220;4.412;2023-09-30T06:17:13;17.00;72.36
5938;DHT22;2994;51.220;4.412;2023-09-30T06:19:38;16.99;72.44
5938;DHT22;2994;51.220;4.412;2023-09-30T06:22:03;16.94;72.71
5938;DHT22;2994;51.220;4.412;2023-09-30T06:24:29;16.98;72.52
5938;DHT22;2994;51.220;4.412;2023-09-30T06:26:55;16.99;72.55
5938;DHT22;2994;51.220;4.412;2023-09-30T06:29:20;17.01;72.58
5938;DHT22;2994;51.220;4.412;2023-09-30T06:31:46;17.00;72.55
5938;DHT22;2994;51.220;4.412;2023-09-30T06:34:12;16.95;72.61
5938;DHT22;2994;51.220;4.412;2023-09-30T06:36:38;16.99;72.57
5938;DHT22;2994;51.220;4.412;2023-09-30T06:39:03;16.99;72.72
5938;DHT22;2994;51.220;4.412;2023-09-30T06:41:31;17.02;72.51
5938;DHT22;2994;51.220;4.412;2023-09-30T06:43:56;17.00;72.60
5938;DHT22;2994;51.220;4.412;2023-09-30T06:46:22;17.01;72.58
5938;DHT22;2994;51.220;4.412;2023-09-30T06:48:49;17.02;72.78
5938;DHT22;2994;51.220;4.412;2023-09-30T06:51:17;17.05;72.84
5938;DHT22;2994;51.220;4.412;2023-09-30T06:53:43;17.07;72.79
5938;DHT22;2994;51.220;4.412;2023-09-30T06:56:08;17.08;72.77
5938;DHT22;2994;51.220;4.412;2023-09-30T06:58:34;17.06;72.79
5938;DHT22;2994;51.220;4.412;2023-09-30T07:00:59;17.09;72.66
5938;DHT22;2994;51.220;4.412;2023-09-30T07:03:25;17.10;72.70
5938;DHT22;2994;51.220;4.412;2023-09-30T07:05:50;17.14;72.70
5938;DHT22;2994;51.220;4.412;2023-09-30T07:08:17;17.15;72.61
5938;DHT22;2994;51.220;4.412;2023-09-30T07:10:44;17.16;72.58
5938;DHT22;2994;51.220;4.412;2023-09-30T07:13:11;17.16;72.60
5938;DHT22;2994;51.220;4.412;2023-09-30T07:15:37;17.18;72.63
5938;DHT22;2994;51.220;4.412;2023-09-30T07:18:03;17.15;72.80
5938;DHT22;2994;51.220;4.412;2023-09-30T07:20:28;17.20;72.54
5938;DHT22;2994;51.220;4.412;2023-09-30T07:22:58;17.22;72.65
5938;DHT22;2994;51.220;4.412;2023-09-30T07:25:24;17.24;72.68
5938;DHT22;2994;51.220;4.412;2023-09-30T07:27:49;17.25;72.67
5938;DHT22;2994;51.220;4.412;2023-09-30T07:30:15;17.25;72.54
5938;DHT22;2994;51.220;4.412;2023-09-30T07:32:41;17.25;72.54
5938;DHT22;2994;51.220;4.412;2023-09-30T07:35:08;17.28;72.65
5938;DHT22;2994;51.220;4.412;2023-09-30T07:37:33;17.26;72.72
5938;DHT22;2994;51.220;4.412;2023-09-30T07:39:59;17.36;72.58
5938;DHT22;2994;51.220;4.412;2023-09-30T07:42:25;17.39;72.56
5938;DHT22;2994;51.220;4.412;2023-09-30T07:44:50;17.46;72.50
5938;DHT22;2994;51.220;4.412;2023-09-30T07:47:16;17.48;72.61
5938;DHT22;2994;51.220;4.412;2023-09-30T07:49:41;17.52;72.57
5938;DHT22;2994;51.220;4.412;2023-09-30T07:52:07;17.56;72.61
5938;DHT22;2994;51.220;4.412;2023-09-30T07:54:32;17.62;72.62
5938;DHT22;2994;51.220;4.412;2023-09-30T07:56:58;17.67;72.51
5938;DHT22;2994;51.220;4.412;2023-09-30T07:59:24;17.75;72.31
5938;DHT22;2994;51.220;4.412;2023-09-30T08:01:51;17.80;72.30
5938;DHT22;2994;51.220;4.412;2023-09-30T08:04:18;17.84;72.09
5938;DHT22;2994;51.220;4.412;2023-09-30T08:06:43;17.91;71.95
5938;DHT22;2994;51.220;4.412;2023-09-30T08:09:09;17.94;71.97
5938;DHT22;2994;51.220;4.412;2023-09-30T08:11:38;18.00;71.92
5938;DHT22;2994;51.220;4.412;2023-09-30T08:14:04;18.05;71.81
5938;DHT22;2994;51.220;4.412;2023-09-30T08:16:34;18.09;71.95
5938;DHT22;2994;51.220;4.412;2023-09-30T08:19:00;18.13;71.80
5938;DHT22;2994;51.220;4.412;2023-09-30T08:21:25;18.14;71.85
5938;DHT22;2994;51.220;4.412;2023-09-30T08:23:51;18.14;71.94
5938;DHT22;2994;51.220;4.412;2023-09-30T08:26:16;18.18;72.06
5938;DHT22;2994;51.220;4.412;2023-09-30T08:28:42;18.24;71.97
5938;DHT22;2994;51.220;4.412;2023-09-30T08:31:07;18.22;72.08
5938;DHT22;2994;51.220;4.412;2023-09-30T08:33:34;18.32;71.84
5938;DHT22;2994;51.220;4.412;2023-09-30T08:36:05;18.38;71.71
5938;DHT22;2994;51.220;4.412;2023-09-30T08:38:35;18.50;71.55
5938;DHT22;2994;51.220;4.412;2023-09-30T08:41:00;18.55;71.52
5938;DHT22;2994;51.220;4.412;2023-09-30T08:43:27;18.59;71.43
5938;DHT22;2994;51.220;4.412;2023-09-30T08:45:56;18.64;71.45
5938;DHT22;2994;51.220;4.412;2023-09-30T08:48:23;18.72;71.30
5938;DHT22;2994;51.220;4.412;2023-09-30T08:50:48;18.76;71.26
5938;DHT22;2994;51.220;4.412;2023-09-30T08:53:16;18.79;71.21
5938;DHT22;2994;51.220;4.412;2023-09-30T08:55:44;18.84;71.19
5938;DHT22;2994;51.220;4.412;2023-09-30T08:58:12;18.94;70.90
5938;DHT22;2994;51.220;4.412;2023-09-30T09:00:38;19.05;70.46
5938;DHT22;2994;51.220;4.412;2023-09-30T09:03:05;19.07;70.20
5938;DHT22;2994;51.220;4.412;2023-09-30T09:05:31;19.10;70.17
5938;DHT22;2994;51.220;4.412;2023-09-30T09:07:57;19.11;70.18
5938;DHT22;2994;51.220;4.412;2023-09-30T09:10:22;19.15;70.19
5938;DHT22;2994;51.220;4.412;2023-09-30T09:12:55;19.21;70.13
5938;DHT22;2994;51.220;4.412;2023-09-30T09:15:27;19.24;70.01
5938;DHT22;2994;51.220;4.412;2023-09-30T09:17:56;19.25;69.94
5938;DHT22;2994;51.220;4.412;2023-09-30T09:20:24;19.29;69.86
5938;DHT22;2994;51.220;4.412;2023-09-30T09:22:55;19.25;70.21
5938;DHT22;2994;51.220;4.412;2023-09-30T09:25:22;19.32;70.11
5938;DHT22;2994;51.220;4.412;2023-09-30T09:27:52;19.13;70.92
5938;DHT22;2994;51.220;4.412;2023-09-30T09:30:23;19.15;70.94
5938;DHT22;2994;51.220;4.412;2023-09-30T09:33:00;19.15;71.10
5938;DHT22;2994;51.220;4.412;2023-09-30T09:35:27;19.18;71.24
5938;DHT22;2994;51.220;4.412;2023-09-30T09:38:02;19.32;70.72
5938;DHT22;2994;51.220;4.412;2023-09-30T09:40:31;19.37;70.40
5938;DHT22;2994;51.220;4.412;2023-09-30T09:42:58;19.40;70.18
5938;DHT22;2994;51.220;4.412;2023-09-30T09:45:27;19.46;70.10
5938;DHT22;2994;51.220;4.412;2023-09-30T09:47:54;19.57;69.62
5938;DHT22;2994;51.220;4.412;2023-09-30T09:50:21;19.66;69.37
5938;DHT22;2994;51.220;4.412;2023-09-30T09:52:51;19.58;69.51
5938;DHT22;2994;51.220;4.412;2023-09-30T09:55:18;19.61;69.73
5938;DHT22;2994;51.220;4.412;2023-09-30T09:57:45;19.24;71.21
5938;DHT22;2994;51.220;4.412;2023-09-30T10:00:16;19.26;71.43
5938;DHT22;2994;51.220;4.412;2023-09-30T10:02:47;19.33;71.06
5938;DHT22;2994;51.220;4.412;2023-09-30T10:05:13;19.36;70.72
5938;DHT22;2994;51.220;4.412;2023-09-30T10:08:07;19.44;69.99
5938;DHT22;2994;51.220;4.412;2023-09-30T10:10:37;19.53;70.01
5938;DHT22;2994;51.220;4.412;2023-09-30T10:13:04;19.61;69.79
5938;DHT22;2994;51.220;4.412;2023-09-30T10:15:35;19.41;70.28
5938;DHT22;2994;51.220;4.412;2023-09-30T10:20:36;19.48;69.84
5938;DHT22;2994;51.220;4.412;2023-09-30T10:25:43;19.73;69.08
5938;DHT22;2994;51.220;4.412;2023-09-30T10:36:38;19.86;67.00
5938;DHT22;2994;51.220;4.412;2023-09-30T10:39:05;19.98;66.75
5938;DHT22;2994;51.220;4.412;2023-09-30T10:46:59;20.21;65.72
5938;DHT22;2994;51.220;4.412;2023-09-30T10:51:50;20.17;64.33
5938;DHT22;2994;51.220;4.412;2023-09-30T10:54:22;20.10;63.37
5938;DHT22;2994;51.220;4.412;2023-09-30T10:56:48;20.22;63.82
5938;DHT22;2994;51.220;4.412;2023-09-30T10:59:24;20.25;63.63
5938;DHT22;2994;51.220;4.412;2023-09-30T11:01:50;20.34;63.41
5938;DHT22;2994;51.220;4.412;2023-09-30T11:04:17;20.41;63.58
5938;DHT22;2994;51.220;4.412;2023-09-30T11:06:43;20.47;63.01
5938;DHT22;2994;51.220;4.412;2023-09-30T11:09:15;20.54;62.90
5938;DHT22;2994;51.220;4.412;2023-09-30T11:11:44;20.43;62.40
5938;DHT22;2994;51.220;4.412;2023-09-30T11:14:24;20.55;62.21
5938;DHT22;2994;51.220;4.412;2023-09-30T11:16:51;20.62;62.05
5938;DHT22;2994;51.220;4.412;2023-09-30T11:19:18;20.36;62.81
5938;DHT22;2994;51.220;4.412;2023-09-30T11:21:48;20.41;61.61
5938;DHT22;2994;51.220;4.412;2023-09-30T11:24:15;20.55;62.03
5938;DHT22;2994;51.220;4.412;2023-09-30T11:26:40;20.64;61.99
5938;DHT22;2994;51.220;4.412;2023-09-30T11:29:08;20.59;61.33
5938;DHT22;2994;51.220;4.412;2023-09-30T11:31:40;20.71;60.85
5938;DHT22;2994;51.220;4.412;2023-09-30T11:34:07;20.71;60.48
5938;DHT22;2994;51.220;4.412;2023-09-30T11:36:37;20.74;58.07
5938;DHT22;2994;51.220;4.412;2023-09-30T11:39:03;20.79;58.74
5938;DHT22;2994;51.220;4.412;2023-09-30T11:41:37;20.84;60.00
5938;DHT22;2994;51.220;4.412;2023-09-30T11:44:11;20.90;59.30
5938;DHT22;2994;51.220;4.412;2023-09-30T11:52:01;20.85;56.31
5938;DHT22;2994;51.220;4.412;2023-09-30T11:56:58;21.04;55.83
5938;DHT22;2994;51.220;4.412;2023-09-30T11:59:24;21.11;55.09
5938;DHT22;2994;51.220;4.412;2023-09-30T12:01:49;21.18;54.53
5938;DHT22;2994;51.220;4.412;2023-09-30T12:04:17;21.22;52.85
5938;DHT22;2994;51.220;4.412;2023-09-30T12:06:47;21.30;53.33
5938;DHT22;2994;51.220;4.412;2023-09-30T12:09:14;21.34;53.59
5938;DHT22;2994;51.220;4.412;2023-09-30T12:11:42;21.35;52.44
5938;DHT22;2994;51.220;4.412;2023-09-30T12:14:10;21.38;54.33
5938;DHT22;2994;51.220;4.412;2023-09-30T12:16:36;21.31;54.03
5938;DHT22;2994;51.220;4.412;2023-09-30T12:19:02;21.40;54.08
5938;DHT22;2994;51.220;4.412;2023-09-30T12:21:27;21.42;53.03
5938;DHT22;2994;51.220;4.412;2023-09-30T12:23:54;21.34;51.66
5938;DHT22;2994;51.220;4.412;2023-09-30T12:26:19;21.44;51.69
5938;DHT22;2994;51.220;4.412;2023-09-30T12:28:45;21.47;52.30
5938;DHT22;2994;51.220;4.412;2023-09-30T12:31:11;21.28;52.86
5938;DHT22;2994;51.220;4.412;2023-09-30T12:33:36;21.48;51.94
5938;DHT22;2994;51.220;4.412;2023-09-30T12:36:02;21.48;52.64
5938;DHT22;2994;51.220;4.412;2023-09-30T12:38:27;21.43;51.82
5938;DHT22;2994;51.220;4.412;2023-09-30T12:40:56;21.39;52.37
5938;DHT22;2994;51.220;4.412;2023-09-30T12:43:22;21.57;52.90
5938;DHT22;2994;51.220;4.412;2023-09-30T12:45:48;21.33;51.19
5938;DHT22;2994;51.220;4.412;2023-09-30T12:48:14;21.17;52.11
5938;DHT22;2994;51.220;4.412;2023-09-30T12:50:41;21.32;52.33
5938;DHT22;2994;51.220;4.412;2023-09-30T12:53:09;21.39;52.56
5938;DHT22;2994;51.220;4.412;2023-09-30T12:55:34;21.30;52.14
5938;DHT22;2994;51.220;4.412;2023-09-30T12:58:00;21.48;53.05
5938;DHT22;2994;51.220;4.412;2023-09-30T13:00:26;21.57;52.43
5938;DHT22;2994;51.220;4.412;2023-09-30T13:02:52;21.67;51.74
5938;DHT22;2994;51.220;4.412;2023-09-30T13:05:18;21.76;53.04
5938;DHT22;2994;51.220;4.412;2023-09-30T13:07:43;21.80;50.96
5938;DHT22;2994;51.220;4.412;2023-09-30T13:10:09;21.83;50.90
5938;DHT22;2994;51.220;4.412;2023-09-30T13:12:35;21.81;51.30
5938;DHT22;2994;51.220;4.412;2023-09-30T13:15:01;21.89;51.33
5938;DHT22;2994;51.220;4.412;2023-09-30T13:17:27;21.97;53.30
5938;DHT22;2994;51.220;4.412;2023-09-30T13:19:54;21.90;52.56
5938;DHT22;2994;51.220;4.412;2023-09-30T13:22:20;21.96;51.43
5938;DHT22;2994;51.220;4.412;2023-09-30T13:24:47;21.95;50.06
5938;DHT22;2994;51.220;4.412;2023-09-30T13:27:12;21.88;49.09
5938;DHT22;2994;51.220;4.412;2023-09-30T13:29:41;21.87;48.60
5938;DHT22;2994;51.220;4.412;2023-09-30T13:32:09;21.90;49.37
5938;DHT22;2994;51.220;4.412;2023-09-30T13:34:34;21.76;48.90
5938;DHT22;2994;51.220;4.412;2023-09-30T13:37:00;21.89;49.68
5938;DHT22;2994;51.220;4.412;2023-09-30T13:39:25;21.92;49.44
5938;DHT22;2994;51.220;4.412;2023-09-30T13:41:51;21.79;49.11
5938;DHT22;2994;51.220;4.412;2023-09-30T13:44:17;21.92;48.99
5938;DHT22;2994;51.220;4.412;2023-09-30T13:46:43;21.85;48.18
5938;DHT22;2994;51.220;4.412;2023-09-30T13:49:09;21.89;48.94
5938;DHT22;2994;51.220;4.412;2023-09-30T13:51:34;22.07;49.89
5938;DHT22;2994;51.220;4.412;2023-09-30T13:54:00;22.12;48.88
5938;DHT22;2994;51.220;4.412;2023-09-30T13:56:25;22.21;48.98
5938;DHT22;2994;51.220;4.412;2023-09-30T13:58:51;22.18;47.47
5938;DHT22;2994;51.220;4.412;2023-09-30T14:01:17;22.19;49.48
5938;DHT22;2994;51.220;4.412;2023-09-30T14:03:45;22.29;48.67
5938;DHT22;2994;51.220;4.412;2023-09-30T14:06:12;22.36;47.31
5938;DHT22;2994;51.220;4.412;2023-09-30T14:08:38;22.41;49.60
5938;DHT22;2994;51.220;4.412;2023-09-30T14:11:04;22.48;48.38
5938;DHT22;2994;51.220;4.412;2023-09-30T14:13:30;22.48;46.76
5938;DHT22;2994;51.220;4.412;2023-09-30T14:15:55;22.54;47.45
5938;DHT22;2994;51.220;4.412;2023-09-30T14:18:21;22.55;47.63
5938;DHT22;2994;51.220;4.412;2023-09-30T14:20:47;22.55;47.51
5938;DHT22;2994;51.220;4.412;2023-09-30T14:23:13;22.58;48.23
5938;DHT22;2994;51.220;4.412;2023-09-30T14:25:38;22.61;48.32
5938;DHT22;2994;51.220;4.412;2023-09-30T14:28:05;22.63;47.92
5938;DHT22;2994;51.220;4.412;2023-09-30T14:30:30;22.66;47.78
5938;DHT22;2994;51.220;4.412;2023-09-30T14:32:56;22.66;48.41
5938;DHT22;2994;51.220;4.412;2023-09-30T14:35:21;22.56;47.84
5938;DHT22;2994;51.220;4.412;2023-09-30T14:37:47;22.60;47.96
5938;DHT22;2994;51.220;4.412;2023-09-30T14:40:12;22.66;48.93
5938;DHT22;2994;51.220;4.412;2023-09-30T14:42:38;22.70;48.37
5938;DHT22;2994;51.220;4.412;2023-09-30T14:45:04;22.75;48.89
5938;DHT22;2994;51.220;4.412;2023-09-30T14:47:30;22.75;47.74
5938;DHT22;2994;51.220;4.412;2023-09-30T14:49:55;22.72;46.92
5938;DHT22;2994;51.220;4.412;2023-09-30T14:52:21;22.77;46.12
5938;DHT22;2994;51.220;4.412;2023-09-30T14:54:47;22.77;46.12
5938;DHT22;2994;51.220;4.412;2023-09-30T14:57:12;22.78;46.24
5938;DHT22;2994;51.220;4.412;2023-09-30T14:59:41;22.78;48.82
5938;DHT22;2994;51.220;4.412;2023-09-30T15:02:06;22.79;48.47
5938;DHT22;2994;51.220;4.412;2023-09-30T15:04:36;22.78;49.23
5938;DHT22;2994;51.220;4.412;2023-09-30T15:07:01;22.76;47.70
5938;DHT22;2994;51.220;4.412;2023-09-30T15:09:27;22.79;50.05
5938;DHT22;2994;51.220;4.412;2023-09-30T15:11:53;22.76;48.26
5938;DHT22;2994;51.220;4.412;2023-09-30T15:14:18;22.80;49.24
5938;DHT22;2994;51.220;4.412;2023-09-30T15:16:44;22.75;48.76
5938;DHT22;2994;51.220;4.412;2023-09-30T15:19:10;22.78;48.71
5938;DHT22;2994;51.220;4.412;2023-09-30T15:21:35;22.75;47.57
5938;DHT22;2994;51.220;4.412;2023-09-30T15:24:01;22.77;48.45
5938;DHT22;2994;51.220;4.412;2023-09-30T15:26:28;22.69;47.45
5938;DHT22;2994;51.220;4.412;2023-09-30T15:28:54;22.72;47.58
5938;DHT22;2994;51.220;4.412;2023-09-30T15:31:20;22.72;49.50
5938;DHT22;2994;51.220;4.412;2023-09-30T15:33:45;22.60;49.05
5938;DHT22;2994;51.220;4.412;2023-09-30T15:36:15;22.68;48.85
5938;DHT22;2994;51.220;4.412;2023-09-30T15:38:43;22.65;47.96
5938;DHT22;2994;51.220;4.412;2023-09-30T15:41:12;22.68;48.03
5938;DHT22;2994;51.220;4.412;2023-09-30T15:43:38;22.67;47.60
5938;DHT22;2994;51.220;4.412;2023-09-30T15:46:03;22.67;47.17
5938;DHT22;2994;51.220;4.412;2023-09-30T15:48:29;22.66;47.74
5938;DHT22;2994;51.220;4.412;2023-09-30T15:50:55;22.53;46.73
5938;DHT22;2994;51.220;4.412;2023-09-30T15:53:20;22.60;47.90
5938;DHT22;2994;51.220;4.412;2023-09-30T15:55:46;22.55;47.44
5938;DHT22;2994;51.220;4.412;2023-09-30T15:58:11;22.63;48.70
5938;DHT22;2994;51.220;4.412;2023-09-30T16:00:38;22.58;47.79
5938;DHT22;2994;51.220;4.412;2023-09-30T16:03:08;22.58;48.12
5938;DHT22;2994;51.220;4.412;2023-09-30T16:05:36;22.57;48.51
5938;DHT22;2994;51.220;4.412;2023-09-30T16:08:03;22.54;47.79
5938;DHT22;2994;51.220;4.412;2023-09-30T16:10:41;22.55;47.96
5938;DHT22;2994;51.220;4.412;2023-09-30T16:13:30;22.49;47.73
5938;DHT22;2994;51.220;4.412;2023-09-30T16:16:06;22.48;49.00
5938;DHT22;2994;51.220;4.412;2023-09-30T16:21:17;22.41;48.31
5938;DHT22;2994;51.220;4.412;2023-09-30T16:28:59;22.28;48.28
5938;DHT22;2994;51.220;4.412;2023-09-30T16:31:28;22.31;49.97
5938;DHT22;2994;51.220;4.412;2023-09-30T16:34:08;22.28;49.37
5938;DHT22;2994;51.220;4.412;2023-09-30T16:36:34;22.26;49.21